METAR Data
IDs: Format: Raw Decoded Include TAF

Data at: 2231 UTC 30 Jun 2022

METAR for:KMDT (Harrisburg Intl, PA, US)
Text:KMDT 302156Z 26006KT 10SM FEW035 FEW250 31/12 A3011 RMK AO2 SLP195 T03110122
Temperature: 31.1°C ( 88°F)
Dewpoint: 12.2°C ( 54°F) [RH = 31%]
Pressure (altimeter):30.11 inches Hg (1019.7 mb) [Sea level pressure: 1019.5 mb]
Winds:from the W (260 degrees) at 7 MPH (6 knots; 3.1 m/s)
Visibility:10 or more sm (16+ km)
Ceiling:at least 12,000 feet AGL
Clouds: few clouds at 3500 feet AGL, few clouds at 25000 feet AGL

TAF for:KMDT (Harrisburg Intl, PA, US) issued at 2111 UTC 30 Jun 2022
Text:KMDT 302111Z 3021/0118 16006KT P6SM FEW050
Forecast period:2100 UTC 30 June 2022 to 1700 UTC 01 July 2022
Forecast type:FROM: standard forecast or significant change
Winds:from the SSE (160 degrees) at 7 MPH (6 knots; 3.1 m/s)
Visibility:6 or more sm (10+ km)
Ceiling:at least 12,000 feet AGL
Clouds: few clouds at 5000 feet AGL
Text:FM011700 22007KT P6SM BKN060
Forecast period:1700 to 1800 UTC 01 July 2022
Forecast type:FROM: standard forecast or significant change
Winds:from the SW (220 degrees) at 8 MPH (7 knots; 3.6 m/s)
Visibility:6 or more sm (10+ km)
Ceiling:6000 feet AGL
Clouds: broken clouds at 6000 feet AGL